Gulbeniz A — TCZK8 — position and weather

sailwx.info

Track history (hours):
 
Tides and Currents Weather Stations Pressure Air Temp Water Temp Dewpoint Dewpoint Depression Visibility Wind Speed Wind Dir Waves Ship Positions

Gulbeniz A

Last reported at 2015-Jan-20 17:32 UTC. Time now 2015-Jan-27 16:57 UTC.
Position N 06°14' E 003°27'.

Length 210 m; draft 9.6 m.

Type: Ship (hazmat cat A). MMSI: 271042493.

Date/timePositionNaut miles runAvg speedWind from/ knotsBaromVisibWave heightAir tempDewpointWater temp
2015-Jan-20 17:32N 06°14' E 003°27'1211.8
2015-Jan-20 16:33N 06°25' E 003°24'4 4.0
2015-Jan-20 15:33N 06°26' E 003°20'1 1.0
2015-Jan-20 14:28N 06°26' E 003°21'0 0.0
2015-Jan-20 13:25N 06°26' E 003°21'0 0.0
2015-Jan-20 12:31N 06°26' E 003°21'0 0.0
2015-Jan-20 11:31N 06°26' E 003°21'0 0.0
2015-Jan-20 10:31N 06°26' E 003°21'0 0.0
2015-Jan-20 09:28N 06°26' E 003°21'0 0.0
2015-Jan-20 08:31N 06°26' E 003°21'0 0.0
2015-Jan-20 07:31N 06°26' E 003°21'0 0.0
2015-Jan-20 06:28N 06°26' E 003°21'0 0.0
2015-Jan-20 05:31N 06°26' E 003°21'0 0.0
2015-Jan-20 04:31N 06°26' E 003°21'0 0.0
2015-Jan-20 03:31N 06°26' E 003°21'0 0.0
2015-Jan-20 02:32N 06°26' E 003°21'0 0.0
2015-Jan-20 01:19N 06°26' E 003°21'0 0.0
2015-Jan-20 00:31N 06°26' E 003°21'0 0.0
2015-Jan-19 23:31N 06°26' E 003°21'0 0.0
2015-Jan-19 22:31N 06°26' E 003°21'0 0.0
2015-Jan-19 21:28N 06°26' E 003°21'0 0.0
2015-Jan-19 20:32N 06°26' E 003°21'3 3.2
2015-Jan-19 19:33N 06°25' E 003°24'4 4.3
2015-Jan-19 18:33N 06°21' E 003°26'0 0.5
2015-Jan-19 17:32N 06°20' E 003°26'5 5.4
2015-Jan-19 16:33N 06°17' E 003°22'1615.8
2015-Jan-19 15:33N 06°08' E 003°08'  
2015-Jan-15 16:32N 11°15' W 017°34'4916.4
2015-Jan-15 13:33N 12°04' W 017°39'7615.2
2015-Jan-15 08:33N 13°20' W 017°39'  
Track history (hours):
 
Tides and Currents Weather Stations Pressure Air Temp Water Temp Dewpoint Dewpoint Depression Visibility Wind Speed Wind Dir Waves Ship Positions

Gulbeniz A

Last reported at 2015-Jan-20 17:32 UTC. Time now 2015-Jan-27 16:57 UTC.
Position N 06°14' E 003°27'.

Length 210 m; draft 9.6 m.

Type: Ship (hazmat cat A). MMSI: 271042493.

Date/timePositionNaut miles runAvg speedWind from/ knotsBaromVisibWave heightAir tempDewpointWater temp
2015-Jan-20 17:32N 06°14' E 003°27'1211.8
2015-Jan-20 16:33N 06°25' E 003°24'4 4.0
2015-Jan-20 15:33N 06°26' E 003°20'1 1.0
2015-Jan-20 14:28N 06°26' E 003°21'0 0.0
2015-Jan-20 13:25N 06°26' E 003°21'0 0.0
2015-Jan-20 12:31N 06°26' E 003°21'0 0.0
2015-Jan-20 11:31N 06°26' E 003°21'0 0.0
2015-Jan-20 10:31N 06°26' E 003°21'0 0.0
2015-Jan-20 09:28N 06°26' E 003°21'0 0.0
2015-Jan-20 08:31N 06°26' E 003°21'0 0.0
2015-Jan-20 07:31N 06°26' E 003°21'0 0.0
2015-Jan-20 06:28N 06°26' E 003°21'0 0.0
2015-Jan-20 05:31N 06°26' E 003°21'0 0.0
2015-Jan-20 04:31N 06°26' E 003°21'0 0.0
2015-Jan-20 03:31N 06°26' E 003°21'0 0.0
2015-Jan-20 02:32N 06°26' E 003°21'0 0.0
2015-Jan-20 01:19N 06°26' E 003°21'0 0.0
2015-Jan-20 00:31N 06°26' E 003°21'0 0.0
2015-Jan-19 23:31N 06°26' E 003°21'0 0.0
2015-Jan-19 22:31N 06°26' E 003°21'0 0.0
2015-Jan-19 21:28N 06°26' E 003°21'0 0.0
2015-Jan-19 20:32N 06°26' E 003°21'3 3.2
2015-Jan-19 19:33N 06°25' E 003°24'4 4.3
2015-Jan-19 18:33N 06°21' E 003°26'0 0.5
2015-Jan-19 17:32N 06°20' E 003°26'5 5.4
2015-Jan-19 16:33N 06°17' E 003°22'1615.8
2015-Jan-19 15:33N 06°08' E 003°08'  
2015-Jan-15 16:32N 11°15' W 017°34'4916.4
2015-Jan-15 13:33N 12°04' W 017°39'7615.2
2015-Jan-15 08:33N 13°20' W 017°39'  

Dump ship's entire track history